sensor_id;sensor_type;location;lat;lon;timestamp;P1;durP1;ratioP1;P2;durP2;ratioP2
4023;SDS011;2026;51.002;13.668;2022-09-13T00:00:11;9.80;;;5.97;;
4023;SDS011;2026;51.002;13.668;2022-09-13T00:05:16;7.90;;;5.13;;
4023;SDS011;2026;51.002;13.668;2022-09-13T00:10:19;5.80;;;5.20;;
4023;SDS011;2026;51.002;13.668;2022-09-13T00:15:22;6.30;;;5.10;;
4023;SDS011;2026;51.002;13.668;2022-09-13T00:20:26;9.23;;;6.00;;
4023;SDS011;2026;51.002;13.668;2022-09-13T00:25:30;6.50;;;5.87;;
4023;SDS011;2026;51.002;13.668;2022-09-13T00:30:33;6.60;;;6.00;;
4023;SDS011;2026;51.002;13.668;2022-09-13T00:35:37;7.13;;;5.60;;
4023;SDS011;2026;51.002;13.668;2022-09-13T00:40:40;7.93;;;5.33;;
4023;SDS011;2026;51.002;13.668;2022-09-13T00:45:43;11.53;;;6.33;;
4023;SDS011;2026;51.002;13.668;2022-09-13T00:50:50;5.33;;;4.80;;
4023;SDS011;2026;51.002;13.668;2022-09-13T00:55:57;5.10;;;4.60;;
4023;SDS011;2026;51.002;13.668;2022-09-13T01:01:02;5.90;;;4.93;;
4023;SDS011;2026;51.002;13.668;2022-09-13T01:06:10;7.97;;;5.03;;
4023;SDS011;2026;51.002;13.668;2022-09-13T01:11:17;4.87;;;4.37;;
4023;SDS011;2026;51.002;13.668;2022-09-13T01:16:25;6.13;;;4.90;;
4023;SDS011;2026;51.002;13.668;2022-09-13T01:21:54;7.40;;;5.57;;
4023;SDS011;2026;51.002;13.668;2022-09-13T01:38:46;8.27;;;6.50;;
4023;SDS011;2026;51.002;13.668;2022-09-13T01:44:01;5.70;;;5.10;;
4023;SDS011;2026;51.002;13.668;2022-09-13T01:49:11;5.90;;;5.30;;
4023;SDS011;2026;51.002;13.668;2022-09-13T01:54:20;7.80;;;5.00;;
4023;SDS011;2026;51.002;13.668;2022-09-13T01:59:35;6.53;;;5.63;;
4023;SDS011;2026;51.002;13.668;2022-09-13T02:04:46;7.07;;;5.83;;
4023;SDS011;2026;51.002;13.668;2022-09-13T02:09:55;7.53;;;5.23;;
4023;SDS011;2026;51.002;13.668;2022-09-13T02:15:03;13.63;;;6.20;;
4023;SDS011;2026;51.002;13.668;2022-09-13T02:20:15;6.43;;;5.57;;
4023;SDS011;2026;51.002;13.668;2022-09-13T02:25:21;7.97;;;6.20;;
4023;SDS011;2026;51.002;13.668;2022-09-13T02:30:28;8.60;;;6.33;;
4023;SDS011;2026;51.002;13.668;2022-09-13T02:35:37;6.60;;;5.77;;
4023;SDS011;2026;51.002;13.668;2022-09-13T02:40:45;7.10;;;5.80;;
4023;SDS011;2026;51.002;13.668;2022-09-13T02:45:57;6.83;;;5.33;;
4023;SDS011;2026;51.002;13.668;2022-09-13T02:51:14;6.60;;;5.63;;
4023;SDS011;2026;51.002;13.668;2022-09-13T02:56:23;8.03;;;5.97;;
4023;SDS011;2026;51.002;13.668;2022-09-13T03:01:35;10.53;;;7.00;;
4023;SDS011;2026;51.002;13.668;2022-09-13T03:06:41;7.90;;;5.27;;
4023;SDS011;2026;51.002;13.668;2022-09-13T03:12:02;5.83;;;5.23;;
4023;SDS011;2026;51.002;13.668;2022-09-13T03:17:22;8.37;;;5.70;;
4023;SDS011;2026;51.002;13.668;2022-09-13T03:22:39;7.13;;;4.60;;
4023;SDS011;2026;51.002;13.668;2022-09-13T03:28:01;6.70;;;5.20;;
4023;SDS011;2026;51.002;13.668;2022-09-13T03:33:11;5.97;;;4.73;;
4023;SDS011;2026;51.002;13.668;2022-09-13T03:38:25;6.50;;;5.17;;
4023;SDS011;2026;51.002;13.668;2022-09-13T03:43:32;7.13;;;4.80;;
4023;SDS011;2026;51.002;13.668;2022-09-13T03:48:40;9.73;;;5.50;;
4023;SDS011;2026;51.002;13.668;2022-09-13T03:53:48;6.90;;;5.90;;
4023;SDS011;2026;51.002;13.668;2022-09-13T03:58:56;6.30;;;4.87;;
4023;SDS011;2026;51.002;13.668;2022-09-13T04:03:59;7.40;;;5.27;;
4023;SDS011;2026;51.002;13.668;2022-09-13T04:09:04;6.87;;;5.50;;
4023;SDS011;2026;51.002;13.668;2022-09-13T04:14:06;15.13;;;7.80;;
4023;SDS011;2026;51.002;13.668;2022-09-13T04:19:11;14.23;;;7.33;;
4023;SDS011;2026;51.002;13.668;2022-09-13T04:24:16;7.47;;;5.90;;
4023;SDS011;2026;51.002;13.668;2022-09-13T04:29:20;8.70;;;5.90;;
4023;SDS011;2026;51.002;13.668;2022-09-13T04:34:24;11.23;;;5.70;;
4023;SDS011;2026;51.002;13.668;2022-09-13T04:39:28;9.67;;;7.10;;
4023;SDS011;2026;51.002;13.668;2022-09-13T04:44:31;11.60;;;6.57;;
4023;SDS011;2026;51.002;13.668;2022-09-13T04:49:34;9.63;;;7.03;;
4023;SDS011;2026;51.002;13.668;2022-09-13T04:54:39;6.60;;;5.53;;
4023;SDS011;2026;51.002;13.668;2022-09-13T04:59:42;9.97;;;6.50;;
4023;SDS011;2026;51.002;13.668;2022-09-13T05:04:45;8.80;;;6.30;;
4023;SDS011;2026;51.002;13.668;2022-09-13T05:09:49;10.13;;;6.57;;
4023;SDS011;2026;51.002;13.668;2022-09-13T05:14:52;9.83;;;7.00;;
4023;SDS011;2026;51.002;13.668;2022-09-13T05:19:55;8.20;;;6.80;;
4023;SDS011;2026;51.002;13.668;2022-09-13T05:24:59;10.40;;;6.40;;
4023;SDS011;2026;51.002;13.668;2022-09-13T05:30:03;10.43;;;7.20;;
4023;SDS011;2026;51.002;13.668;2022-09-13T05:35:06;9.83;;;6.90;;
4023;SDS011;2026;51.002;13.668;2022-09-13T05:40:11;9.63;;;6.43;;
4023;SDS011;2026;51.002;13.668;2022-09-13T05:45:14;10.63;;;7.67;;
4023;SDS011;2026;51.002;13.668;2022-09-13T05:50:17;10.10;;;7.00;;
4023;SDS011;2026;51.002;13.668;2022-09-13T05:55:42;8.43;;;6.70;;
4023;SDS011;2026;51.002;13.668;2022-09-13T06:00:47;10.10;;;7.73;;
4023;SDS011;2026;51.002;13.668;2022-09-13T06:05:55;9.87;;;6.87;;
4023;SDS011;2026;51.002;13.668;2022-09-13T06:11:01;7.40;;;5.87;;
4023;SDS011;2026;51.002;13.668;2022-09-13T06:16:06;6.80;;;5.73;;
4023;SDS011;2026;51.002;13.668;2022-09-13T06:21:12;8.00;;;5.80;;
4023;SDS011;2026;51.002;13.668;2022-09-13T06:26:20;6.13;;;5.53;;
4023;SDS011;2026;51.002;13.668;2022-09-13T06:31:25;7.10;;;6.20;;
4023;SDS011;2026;51.002;13.668;2022-09-13T06:36:29;9.10;;;5.37;;
4023;SDS011;2026;51.002;13.668;2022-09-13T06:41:33;5.50;;;5.00;;
4023;SDS011;2026;51.002;13.668;2022-09-13T06:46:37;6.33;;;5.73;;
4023;SDS011;2026;51.002;13.668;2022-09-13T06:51:40;5.43;;;4.93;;
4023;SDS011;2026;51.002;13.668;2022-09-13T06:56:45;5.50;;;5.00;;
4023;SDS011;2026;51.002;13.668;2022-09-13T07:01:48;5.67;;;5.07;;
4023;SDS011;2026;51.002;13.668;2022-09-13T07:06:51;5.13;;;4.23;;
4023;SDS011;2026;51.002;13.668;2022-09-13T07:11:56;5.40;;;4.80;;
4023;SDS011;2026;51.002;13.668;2022-09-13T07:16:59;5.30;;;4.60;;
4023;SDS011;2026;51.002;13.668;2022-09-13T07:22:02;7.60;;;5.60;;
4023;SDS011;2026;51.002;13.668;2022-09-13T07:27:06;6.50;;;4.10;;
4023;SDS011;2026;51.002;13.668;2022-09-13T07:32:09;4.73;;;4.33;;
4023;SDS011;2026;51.002;13.668;2022-09-13T07:37:12;6.03;;;4.53;;
4023;SDS011;2026;51.002;13.668;2022-09-13T07:42:16;5.73;;;3.90;;
4023;SDS011;2026;51.002;13.668;2022-09-13T07:47:19;4.53;;;4.13;;
4023;SDS011;2026;51.002;13.668;2022-09-13T07:52:22;5.73;;;4.87;;
4023;SDS011;2026;51.002;13.668;2022-09-13T07:57:27;4.87;;;4.47;;
4023;SDS011;2026;51.002;13.668;2022-09-13T08:02:30;6.30;;;4.63;;
4023;SDS011;2026;51.002;13.668;2022-09-13T08:07:33;4.70;;;4.20;;
4023;SDS011;2026;51.002;13.668;2022-09-13T08:12:38;5.43;;;4.93;;
4023;SDS011;2026;51.002;13.668;2022-09-13T08:17:41;4.93;;;4.43;;
4023;SDS011;2026;51.002;13.668;2022-09-13T08:22:43;8.30;;;5.27;;
4023;SDS011;2026;51.002;13.668;2022-09-13T08:27:48;6.67;;;5.53;;
4023;SDS011;2026;51.002;13.668;2022-09-13T08:32:51;6.87;;;6.10;;
4023;SDS011;2026;51.002;13.668;2022-09-13T08:37:54;5.43;;;4.90;;
4023;SDS011;2026;51.002;13.668;2022-09-13T08:43:00;6.60;;;5.17;;
4023;SDS011;2026;51.002;13.668;2022-09-13T08:48:10;6.10;;;5.13;;
4023;SDS011;2026;51.002;13.668;2022-09-13T08:53:19;4.50;;;4.10;;
4023;SDS011;2026;51.002;13.668;2022-09-13T08:58:41;6.07;;;4.10;;
4023;SDS011;2026;51.002;13.668;2022-09-13T09:04:04;4.93;;;4.43;;
4023;SDS011;2026;51.002;13.668;2022-09-13T09:09:14;7.27;;;4.53;;
4023;SDS011;2026;51.002;13.668;2022-09-13T09:14:22;6.20;;;4.93;;
4023;SDS011;2026;51.002;13.668;2022-09-13T09:19:33;7.90;;;5.13;;
4023;SDS011;2026;51.002;13.668;2022-09-13T09:24:41;5.83;;;4.70;;
4023;SDS011;2026;51.002;13.668;2022-09-13T09:29:50;5.27;;;4.17;;
4023;SDS011;2026;51.002;13.668;2022-09-13T09:35:00;4.73;;;4.30;;
4023;SDS011;2026;51.002;13.668;2022-09-13T09:40:13;4.73;;;4.00;;
4023;SDS011;2026;51.002;13.668;2022-09-13T09:45:22;4.37;;;3.97;;
4023;SDS011;2026;51.002;13.668;2022-09-13T09:50:28;5.33;;;4.00;;
4023;SDS011;2026;51.002;13.668;2022-09-13T09:55:36;4.23;;;3.80;;
4023;SDS011;2026;51.002;13.668;2022-09-13T10:00:50;4.90;;;4.40;;
4023;SDS011;2026;51.002;13.668;2022-09-13T10:06:02;6.23;;;4.53;;
4023;SDS011;2026;51.002;13.668;2022-09-13T10:11:07;6.70;;;4.37;;
4023;SDS011;2026;51.002;13.668;2022-09-13T10:16:22;4.17;;;3.77;;
4023;SDS011;2026;51.002;13.668;2022-09-13T10:21:27;4.53;;;4.13;;
4023;SDS011;2026;51.002;13.668;2022-09-13T10:26:31;4.93;;;4.27;;
4023;SDS011;2026;51.002;13.668;2022-09-13T10:31:37;5.57;;;4.17;;
4023;SDS011;2026;51.002;13.668;2022-09-13T10:36:45;5.10;;;4.13;;
4023;SDS011;2026;51.002;13.668;2022-09-13T10:41:55;4.00;;;3.60;;
4023;SDS011;2026;51.002;13.668;2022-09-13T10:47:03;4.33;;;3.97;;
4023;SDS011;2026;51.002;13.668;2022-09-13T10:57:32;4.13;;;3.50;;
4023;SDS011;2026;51.002;13.668;2022-09-13T11:02:42;4.30;;;3.90;;
4023;SDS011;2026;51.002;13.668;2022-09-13T11:08:06;4.10;;;3.53;;
4023;SDS011;2026;51.002;13.668;2022-09-13T11:13:32;3.40;;;3.10;;
4023;SDS011;2026;51.002;13.668;2022-09-13T11:18:52;3.23;;;2.70;;
4023;SDS011;2026;51.002;13.668;2022-09-13T11:24:23;4.20;;;3.80;;
4023;SDS011;2026;51.002;13.668;2022-09-13T11:29:47;4.90;;;3.00;;
4023;SDS011;2026;51.002;13.668;2022-09-13T11:35:20;4.32;;;2.92;;
4023;SDS011;2026;51.002;13.668;2022-09-13T11:40:38;3.63;;;3.30;;
4023;SDS011;2026;51.002;13.668;2022-09-13T11:45:53;3.30;;;3.00;;
4023;SDS011;2026;51.002;13.668;2022-09-13T11:51:08;3.40;;;3.10;;
4023;SDS011;2026;51.002;13.668;2022-09-13T11:56:20;5.88;;;4.05;;
4023;SDS011;2026;51.002;13.668;2022-09-13T12:01:28;4.10;;;3.17;;
4023;SDS011;2026;51.002;13.668;2022-09-13T12:06:41;4.38;;;3.42;;
4023;SDS011;2026;51.002;13.668;2022-09-13T12:11:47;3.78;;;3.17;;
4023;SDS011;2026;51.002;13.668;2022-09-13T12:16:54;3.37;;;3.00;;
4023;SDS011;2026;51.002;13.668;2022-09-13T12:22:02;6.00;;;4.70;;
4023;SDS011;2026;51.002;13.668;2022-09-13T12:27:09;4.70;;;3.57;;
4023;SDS011;2026;51.002;13.668;2022-09-13T12:32:23;3.70;;;3.40;;
4023;SDS011;2026;51.002;13.668;2022-09-13T12:37:39;3.75;;;3.33;;
4023;SDS011;2026;51.002;13.668;2022-09-13T12:42:58;2.87;;;2.63;;
4023;SDS011;2026;51.002;13.668;2022-09-13T12:48:21;3.90;;;3.30;;
4023;SDS011;2026;51.002;13.668;2022-09-13T12:53:51;3.20;;;2.67;;
4023;SDS011;2026;51.002;13.668;2022-09-13T12:59:10;2.95;;;2.75;;
4023;SDS011;2026;51.002;13.668;2022-09-13T13:04:37;2.85;;;2.58;;
4023;SDS011;2026;51.002;13.668;2022-09-13T13:09:42;2.43;;;2.23;;
4023;SDS011;2026;51.002;13.668;2022-09-13T13:14:48;2.47;;;2.28;;
4023;SDS011;2026;51.002;13.668;2022-09-13T13:19:54;4.50;;;2.83;;
4023;SDS011;2026;51.002;13.668;2022-09-13T13:24:58;3.10;;;2.80;;
4023;SDS011;2026;51.002;13.668;2022-09-13T13:30:49;2.95;;;2.70;;
4023;SDS011;2026;51.002;13.668;2022-09-13T13:35:54;4.05;;;2.20;;
4023;SDS011;2026;51.002;13.668;2022-09-13T13:41:05;4.07;;;2.40;;
4023;SDS011;2026;51.002;13.668;2022-09-13T13:46:24;2.50;;;2.30;;
4023;SDS011;2026;51.002;13.668;2022-09-13T13:51:29;2.40;;;2.20;;
4023;SDS011;2026;51.002;13.668;2022-09-13T13:56:43;3.42;;;2.50;;
4023;SDS011;2026;51.002;13.668;2022-09-13T14:01:49;3.00;;;2.33;;
4023;SDS011;2026;51.002;13.668;2022-09-13T14:06:57;2.95;;;2.70;;
4023;SDS011;2026;51.002;13.668;2022-09-13T14:12:23;9.55;;;4.90;;
4023;SDS011;2026;51.002;13.668;2022-09-13T14:17:46;2.88;;;2.67;;
4023;SDS011;2026;51.002;13.668;2022-09-13T14:23:11;2.60;;;2.38;;
4023;SDS011;2026;51.002;13.668;2022-09-13T14:28:19;2.83;;;2.45;;
4023;SDS011;2026;51.002;13.668;2022-09-13T14:33:24;5.60;;;2.58;;
4023;SDS011;2026;51.002;13.668;2022-09-13T14:38:32;3.67;;;2.80;;
4023;SDS011;2026;51.002;13.668;2022-09-13T14:43:39;3.10;;;2.50;;
4023;SDS011;2026;51.002;13.668;2022-09-13T14:48:45;2.60;;;2.40;;
4023;SDS011;2026;51.002;13.668;2022-09-13T14:53:52;5.65;;;2.80;;
4023;SDS011;2026;51.002;13.668;2022-09-13T14:59:02;2.80;;;2.60;;
4023;SDS011;2026;51.002;13.668;2022-09-13T15:04:08;2.57;;;2.37;;
4023;SDS011;2026;51.002;13.668;2022-09-13T15:09:16;2.70;;;2.50;;
4023;SDS011;2026;51.002;13.668;2022-09-13T15:14:30;3.07;;;2.77;;
4023;SDS011;2026;51.002;13.668;2022-09-13T15:19:36;4.00;;;3.60;;
4023;SDS011;2026;51.002;13.668;2022-09-13T15:24:42;4.00;;;2.80;;
4023;SDS011;2026;51.002;13.668;2022-09-13T15:29:49;3.47;;;3.17;;
4023;SDS011;2026;51.002;13.668;2022-09-13T15:34:55;6.07;;;3.20;;
4023;SDS011;2026;51.002;13.668;2022-09-13T15:40:09;3.20;;;2.90;;
4023;SDS011;2026;51.002;13.668;2022-09-13T15:45:17;4.20;;;3.20;;
4023;SDS011;2026;51.002;13.668;2022-09-13T15:50:23;4.93;;;3.27;;
4023;SDS011;2026;51.002;13.668;2022-09-13T15:55:29;5.40;;;2.87;;
4023;SDS011;2026;51.002;13.668;2022-09-13T16:00:34;2.90;;;2.70;;
4023;SDS011;2026;51.002;13.668;2022-09-13T16:05:37;3.80;;;2.60;;
4023;SDS011;2026;51.002;13.668;2022-09-13T16:10:40;3.20;;;2.90;;
4023;SDS011;2026;51.002;13.668;2022-09-13T16:15:44;2.63;;;2.43;;
4023;SDS011;2026;51.002;13.668;2022-09-13T16:20:47;3.87;;;2.30;;
4023;SDS011;2026;51.002;13.668;2022-09-13T16:25:51;3.90;;;2.67;;
4023;SDS011;2026;51.002;13.668;2022-09-13T16:30:58;3.80;;;3.03;;
4023;SDS011;2026;51.002;13.668;2022-09-13T16:36:01;5.73;;;2.37;;
4023;SDS011;2026;51.002;13.668;2022-09-13T16:41:04;3.30;;;2.40;;
4023;SDS011;2026;51.002;13.668;2022-09-13T16:46:10;3.77;;;2.60;;
4023;SDS011;2026;51.002;13.668;2022-09-13T16:51:15;2.87;;;2.47;;
4023;SDS011;2026;51.002;13.668;2022-09-13T16:56:19;2.37;;;2.17;;
4023;SDS011;2026;51.002;13.668;2022-09-13T17:01:25;2.90;;;2.33;;
4023;SDS011;2026;51.002;13.668;2022-09-13T17:06:29;2.83;;;2.33;;
4023;SDS011;2026;51.002;13.668;2022-09-13T17:11:33;2.97;;;2.50;;
4023;SDS011;2026;51.002;13.668;2022-09-13T17:16:41;5.90;;;2.70;;
4023;SDS011;2026;51.002;13.668;2022-09-13T17:21:46;3.17;;;2.43;;
4023;SDS011;2026;51.002;13.668;2022-09-13T17:26:50;2.70;;;2.47;;
4023;SDS011;2026;51.002;13.668;2022-09-13T17:31:54;3.17;;;2.80;;
4023;SDS011;2026;51.002;13.668;2022-09-13T17:36:57;4.03;;;2.40;;
4023;SDS011;2026;51.002;13.668;2022-09-13T17:42:00;6.13;;;2.50;;
4023;SDS011;2026;51.002;13.668;2022-09-13T17:47:04;3.87;;;2.37;;
4023;SDS011;2026;51.002;13.668;2022-09-13T17:52:08;2.67;;;2.47;;
4023;SDS011;2026;51.002;13.668;2022-09-13T17:57:11;3.43;;;2.80;;
4023;SDS011;2026;51.002;13.668;2022-09-13T18:02:23;4.33;;;3.50;;
4023;SDS011;2026;51.002;13.668;2022-09-13T18:07:27;2.80;;;2.60;;
4023;SDS011;2026;51.002;13.668;2022-09-13T18:12:31;4.73;;;3.27;;
4023;SDS011;2026;51.002;13.668;2022-09-13T18:17:35;3.40;;;3.10;;
4023;SDS011;2026;51.002;13.668;2022-09-13T18:22:38;4.33;;;3.30;;
4023;SDS011;2026;51.002;13.668;2022-09-13T18:27:41;4.00;;;3.30;;
4023;SDS011;2026;51.002;13.668;2022-09-13T18:32:45;4.07;;;3.07;;
4023;SDS011;2026;51.002;13.668;2022-09-13T18:37:49;7.07;;;3.50;;
4023;SDS011;2026;51.002;13.668;2022-09-13T18:42:52;3.70;;;3.30;;
4023;SDS011;2026;51.002;13.668;2022-09-13T18:47:57;4.17;;;3.10;;
4023;SDS011;2026;51.002;13.668;2022-09-13T18:53:00;3.83;;;3.43;;
4023;SDS011;2026;51.002;13.668;2022-09-13T18:58:03;3.60;;;3.13;;
4023;SDS011;2026;51.002;13.668;2022-09-13T19:03:10;3.50;;;3.20;;
4023;SDS011;2026;51.002;13.668;2022-09-13T19:08:13;4.17;;;3.20;;
4023;SDS011;2026;51.002;13.668;2022-09-13T19:13:16;5.90;;;3.30;;
4023;SDS011;2026;51.002;13.668;2022-09-13T19:18:20;4.30;;;3.07;;
4023;SDS011;2026;51.002;13.668;2022-09-13T19:23:23;3.43;;;3.00;;
4023;SDS011;2026;51.002;13.668;2022-09-13T19:28:47;4.27;;;3.27;;
4023;SDS011;2026;51.002;13.668;2022-09-13T19:33:54;3.40;;;3.10;;
4023;SDS011;2026;51.002;13.668;2022-09-13T19:38:57;3.40;;;2.93;;
4023;SDS011;2026;51.002;13.668;2022-09-13T19:44:01;5.80;;;3.80;;
4023;SDS011;2026;51.002;13.668;2022-09-13T19:49:06;4.87;;;4.10;;
4023;SDS011;2026;51.002;13.668;2022-09-13T19:54:12;4.40;;;3.90;;
4023;SDS011;2026;51.002;13.668;2022-09-13T19:59:17;4.00;;;3.60;;
4023;SDS011;2026;51.002;13.668;2022-09-13T20:04:22;7.67;;;3.87;;
4023;SDS011;2026;51.002;13.668;2022-09-13T20:09:26;5.30;;;4.53;;
4023;SDS011;2026;51.002;13.668;2022-09-13T20:14:29;6.13;;;4.30;;
4023;SDS011;2026;51.002;13.668;2022-09-13T20:19:34;6.00;;;4.40;;
4023;SDS011;2026;51.002;13.668;2022-09-13T20:24:45;9.43;;;5.90;;
4023;SDS011;2026;51.002;13.668;2022-09-13T20:29:49;10.23;;;7.10;;
4023;SDS011;2026;51.002;13.668;2022-09-13T20:34:53;15.33;;;8.57;;
4023;SDS011;2026;51.002;13.668;2022-09-13T20:39:56;16.10;;;8.77;;
4023;SDS011;2026;51.002;13.668;2022-09-13T20:45:03;13.47;;;8.40;;
4023;SDS011;2026;51.002;13.668;2022-09-13T20:50:09;11.20;;;7.67;;
4023;SDS011;2026;51.002;13.668;2022-09-13T20:55:12;13.83;;;8.27;;
4023;SDS011;2026;51.002;13.668;2022-09-13T21:00:16;9.97;;;6.73;;
4023;SDS011;2026;51.002;13.668;2022-09-13T21:05:20;8.17;;;5.60;;
4023;SDS011;2026;51.002;13.668;2022-09-13T21:10:23;8.27;;;5.53;;
4023;SDS011;2026;51.002;13.668;2022-09-13T21:15:26;7.53;;;5.50;;
4023;SDS011;2026;51.002;13.668;2022-09-13T21:20:31;8.67;;;4.93;;
4023;SDS011;2026;51.002;13.668;2022-09-13T21:25:34;6.90;;;5.00;;
4023;SDS011;2026;51.002;13.668;2022-09-13T21:30:38;6.50;;;5.23;;
4023;SDS011;2026;51.002;13.668;2022-09-13T21:35:42;7.67;;;5.37;;
4023;SDS011;2026;51.002;13.668;2022-09-13T21:40:52;7.50;;;5.17;;
4023;SDS011;2026;51.002;13.668;2022-09-13T21:45:59;6.33;;;4.70;;
4023;SDS011;2026;51.002;13.668;2022-09-13T21:51:12;5.97;;;4.90;;
4023;SDS011;2026;51.002;13.668;2022-09-13T21:56:17;8.60;;;5.87;;
4023;SDS011;2026;51.002;13.668;2022-09-13T22:01:22;8.00;;;5.00;;
4023;SDS011;2026;51.002;13.668;2022-09-13T22:06:27;7.80;;;5.20;;
4023;SDS011;2026;51.002;13.668;2022-09-13T22:11:34;7.03;;;4.40;;
4023;SDS011;2026;51.002;13.668;2022-09-13T22:16:40;7.80;;;4.90;;
4023;SDS011;2026;51.002;13.668;2022-09-13T22:21:46;6.10;;;4.93;;
4023;SDS011;2026;51.002;13.668;2022-09-13T22:26:50;6.80;;;5.10;;
4023;SDS011;2026;51.002;13.668;2022-09-13T22:31:54;7.00;;;4.97;;
4023;SDS011;2026;51.002;13.668;2022-09-13T22:36:59;7.00;;;5.17;;
4023;SDS011;2026;51.002;13.668;2022-09-13T22:42:02;8.00;;;4.83;;
4023;SDS011;2026;51.002;13.668;2022-09-13T22:47:05;6.90;;;4.73;;
4023;SDS011;2026;51.002;13.668;2022-09-13T22:52:10;7.70;;;5.70;;
4023;SDS011;2026;51.002;13.668;2022-09-13T22:57:13;9.17;;;5.43;;
4023;SDS011;2026;51.002;13.668;2022-09-13T23:02:16;8.30;;;5.20;;
4023;SDS011;2026;51.002;13.668;2022-09-13T23:07:21;7.63;;;5.13;;
4023;SDS011;2026;51.002;13.668;2022-09-13T23:12:23;9.70;;;5.80;;
4023;SDS011;2026;51.002;13.668;2022-09-13T23:17:26;7.53;;;5.13;;
4023;SDS011;2026;51.002;13.668;2022-09-13T23:22:31;7.00;;;5.53;;
4023;SDS011;2026;51.002;13.668;2022-09-13T23:27:34;7.57;;;5.40;;
4023;SDS011;2026;51.002;13.668;2022-09-13T23:32:37;5.47;;;4.80;;
4023;SDS011;2026;51.002;13.668;2022-09-13T23:37:41;7.43;;;5.73;;
4023;SDS011;2026;51.002;13.668;2022-09-13T23:42:44;7.43;;;5.43;;
4023;SDS011;2026;51.002;13.668;2022-09-13T23:47:47;7.63;;;5.67;;
4023;SDS011;2026;51.002;13.668;2022-09-13T23:52:51;6.57;;;5.37;;
4023;SDS011;2026;51.002;13.668;2022-09-13T23:57:54;5.10;;;4.60;;
